الصفحة الرئيسية
METAR-TAF:

METAR-TAF

مطار :

نوميا / La Tontouta, نيو كاليدونيا

دائرة عرض: 22-01S, خط طول: 166-13E, ارتفاع: 16 متر

مراقبة الطقس الحالي

تاريخ ووقت الإصدار 14 دقيقة قبل الساعة 15:30UTC
رياح هادئة
درجة الحرارة 26°درجة مئوية
الرطوبة 79%
ضغط 1007 hPa
الرؤية 10 كم أو أكثر
غيوم قليلة على ارتفاع 5400 قدم

METAR: NWWW 041530Z AUTO 00000KT 9999 FEW054 26/22 Q1007 NOSIG

زمن: 02:44 (15:44 UTC)

توقعات

تاريخ ووقت الإصدار 4ساعات و 44 دقيقة قبل الساعة 11:00UTC
التوقعات صالحة من04 الساعة 12 UTC إلى 05 الساعة 12 UTC
ريح 2 عقدةمن اتجاهات متغيرة
الرؤية 10 كم أو أكثر
غيوم متفرقة على ارتفاع 4000 قدم
أصبح
من 04 الساعة 23 UTC إلى 05 الساعة 01 UTC
ريح 10 عقدة من الجنوب/الجنوب الشرقي
أصبح
من 05 الساعة 06 UTC إلى 05 الساعة 08 UTC
ريح 2 عقدةمن اتجاهات متغيرة

TAF: NWWW 041100Z 0412/0512 VRB02KT 9999 SCT040 BECMG 0423/0501 15010KT BECMG 0506/0508 VRB02KT

أرصاد الطقس والتوقعات من أكثر من 4000 مطار (تقارير الطقس للمطار METAR والتنبؤ بالطقس بالمطارTAF).

المحطات المتاحة هي النقط الصفراء والحمراء على الخريطة.

حرك المؤشر فوق النقطة لمعرفة اسم المحطة.

ثم انقر لمعرفة أرصاد وتوقعات الطقس.

لتغيير الخارطة: اضغط على الأزرار الخضراء مع رمز الصليب الأسود للتكبير. على الزر الأخضر مع شرطة للتصغير، أو على الأسهم الخضراء للخرائط المجاورة.


METAR-TAF: